sensor_id;sensor_type;location;lat;lon;timestamp;P1;durP1;ratioP1;P2;durP2;ratioP2
69991;SDS011;57332;51.320;-0.580;2023-02-16T00:01:18;10.23;;;3.70;;
69991;SDS011;57332;51.320;-0.580;2023-02-16T00:03:45;7.47;;;3.33;;
69991;SDS011;57332;51.320;-0.580;2023-02-16T00:06:12;10.30;;;3.95;;
69991;SDS011;57332;51.320;-0.580;2023-02-16T00:08:46;8.02;;;3.60;;
69991;SDS011;57332;51.320;-0.580;2023-02-16T00:11:23;7.75;;;2.85;;
69991;SDS011;57332;51.320;-0.580;2023-02-16T00:14:11;9.23;;;3.03;;
69991;SDS011;57332;51.320;-0.580;2023-02-16T00:16:39;8.70;;;3.08;;
69991;SDS011;57332;51.320;-0.580;2023-02-16T00:19:23;7.63;;;2.60;;
69991;SDS011;57332;51.320;-0.580;2023-02-16T00:21:51;10.35;;;3.17;;
69991;SDS011;57332;51.320;-0.580;2023-02-16T00:24:18;8.75;;;3.15;;
69991;SDS011;57332;51.320;-0.580;2023-02-16T00:26:46;10.23;;;3.92;;
69991;SDS011;57332;51.320;-0.580;2023-02-16T00:29:15;9.25;;;3.40;;
69991;SDS011;57332;51.320;-0.580;2023-02-16T00:31:42;11.50;;;3.72;;
69991;SDS011;57332;51.320;-0.580;2023-02-16T00:34:31;8.18;;;3.40;;
69991;SDS011;57332;51.320;-0.580;2023-02-16T00:37:00;9.27;;;4.25;;
69991;SDS011;57332;51.320;-0.580;2023-02-16T00:39:27;14.35;;;4.47;;
69991;SDS011;57332;51.320;-0.580;2023-02-16T00:41:55;9.45;;;3.78;;
69991;SDS011;57332;51.320;-0.580;2023-02-16T00:44:30;7.35;;;3.33;;
69991;SDS011;57332;51.320;-0.580;2023-02-16T00:47:02;10.98;;;4.30;;
69991;SDS011;57332;51.320;-0.580;2023-02-16T00:49:29;9.38;;;3.63;;
69991;SDS011;57332;51.320;-0.580;2023-02-16T00:51:56;10.60;;;3.50;;
69991;SDS011;57332;51.320;-0.580;2023-02-16T00:54:23;10.27;;;4.50;;
69991;SDS011;57332;51.320;-0.580;2023-02-16T00:56:50;9.68;;;3.72;;
69991;SDS011;57332;51.320;-0.580;2023-02-16T00:59:18;12.15;;;4.25;;
69991;SDS011;57332;51.320;-0.580;2023-02-16T01:01:46;9.63;;;3.67;;
69991;SDS011;57332;51.320;-0.580;2023-02-16T01:04:17;10.65;;;3.95;;
69991;SDS011;57332;51.320;-0.580;2023-02-16T01:06:45;9.60;;;4.50;;
69991;SDS011;57332;51.320;-0.580;2023-02-16T01:09:30;10.95;;;4.25;;
69991;SDS011;57332;51.320;-0.580;2023-02-16T01:12:17;8.85;;;3.70;;
69991;SDS011;57332;51.320;-0.580;2023-02-16T01:14:46;10.30;;;3.70;;
69991;SDS011;57332;51.320;-0.580;2023-02-16T01:17:13;11.25;;;3.95;;
69991;SDS011;57332;51.320;-0.580;2023-02-16T01:19:40;10.27;;;4.03;;
69991;SDS011;57332;51.320;-0.580;2023-02-16T01:22:07;10.50;;;4.03;;
69991;SDS011;57332;51.320;-0.580;2023-02-16T01:24:34;10.98;;;3.95;;
69991;SDS011;57332;51.320;-0.580;2023-02-16T01:27:01;8.82;;;3.95;;
69991;SDS011;57332;51.320;-0.580;2023-02-16T01:29:27;13.73;;;4.05;;
69991;SDS011;57332;51.320;-0.580;2023-02-16T01:31:54;11.98;;;4.07;;
69991;SDS011;57332;51.320;-0.580;2023-02-16T01:34:21;11.23;;;3.85;;
69991;SDS011;57332;51.320;-0.580;2023-02-16T01:36:48;12.13;;;4.03;;
69991;SDS011;57332;51.320;-0.580;2023-02-16T01:39:16;11.43;;;4.40;;
69991;SDS011;57332;51.320;-0.580;2023-02-16T01:41:53;8.90;;;3.53;;
69991;SDS011;57332;51.320;-0.580;2023-02-16T01:44:26;10.80;;;4.35;;
69991;SDS011;57332;51.320;-0.580;2023-02-16T01:49:20;10.88;;;3.75;;
69991;SDS011;57332;51.320;-0.580;2023-02-16T01:51:54;8.70;;;3.28;;
69991;SDS011;57332;51.320;-0.580;2023-02-16T02:02:07;8.27;;;3.45;;
69991;SDS011;57332;51.320;-0.580;2023-02-16T02:04:42;8.55;;;3.42;;
69991;SDS011;57332;51.320;-0.580;2023-02-16T02:07:32;8.43;;;3.45;;
69991;SDS011;57332;51.320;-0.580;2023-02-16T02:10:13;6.68;;;2.95;;
69991;SDS011;57332;51.320;-0.580;2023-02-16T02:12:44;9.63;;;3.35;;
69991;SDS011;57332;51.320;-0.580;2023-02-16T02:15:14;12.75;;;3.60;;
69991;SDS011;57332;51.320;-0.580;2023-02-16T02:17:42;7.00;;;3.40;;
69991;SDS011;57332;51.320;-0.580;2023-02-16T02:20:28;7.30;;;2.90;;
69991;SDS011;57332;51.320;-0.580;2023-02-16T02:23:26;5.97;;;2.85;;
69991;SDS011;57332;51.320;-0.580;2023-02-16T02:34:01;6.43;;;2.80;;
69991;SDS011;57332;51.320;-0.580;2023-02-16T02:44:24;6.07;;;2.55;;
69991;SDS011;57332;51.320;-0.580;2023-02-16T02:46:53;5.00;;;2.30;;
69991;SDS011;57332;51.320;-0.580;2023-02-16T02:49:20;7.32;;;2.67;;
69991;SDS011;57332;51.320;-0.580;2023-02-16T02:51:48;5.40;;;2.22;;
69991;SDS011;57332;51.320;-0.580;2023-02-16T02:54:28;5.35;;;2.33;;
69991;SDS011;57332;51.320;-0.580;2023-02-16T02:57:23;5.72;;;2.47;;
69991;SDS011;57332;51.320;-0.580;2023-02-16T03:00:12;5.28;;;3.00;;
69991;SDS011;57332;51.320;-0.580;2023-02-16T03:03:20;5.20;;;2.33;;
69991;SDS011;57332;51.320;-0.580;2023-02-16T03:05:50;10.18;;;2.72;;
69991;SDS011;57332;51.320;-0.580;2023-02-16T03:08:20;7.30;;;2.85;;
69991;SDS011;57332;51.320;-0.580;2023-02-16T03:10:52;7.60;;;2.75;;
69991;SDS011;57332;51.320;-0.580;2023-02-16T03:13:43;7.15;;;3.05;;
69991;SDS011;57332;51.320;-0.580;2023-02-16T03:16:15;8.27;;;3.28;;
69991;SDS011;57332;51.320;-0.580;2023-02-16T03:18:43;5.25;;;2.65;;
69991;SDS011;57332;51.320;-0.580;2023-02-16T03:21:30;7.43;;;2.85;;
69991;SDS011;57332;51.320;-0.580;2023-02-16T03:24:27;6.97;;;2.60;;
69991;SDS011;57332;51.320;-0.580;2023-02-16T03:27:13;7.40;;;2.97;;
69991;SDS011;57332;51.320;-0.580;2023-02-16T03:30:01;5.35;;;2.55;;
69991;SDS011;57332;51.320;-0.580;2023-02-16T03:32:30;6.97;;;3.00;;
69991;SDS011;57332;51.320;-0.580;2023-02-16T03:34:57;8.45;;;2.80;;
69991;SDS011;57332;51.320;-0.580;2023-02-16T03:37:24;8.75;;;2.70;;
69991;SDS011;57332;51.320;-0.580;2023-02-16T03:39:51;6.68;;;2.88;;
69991;SDS011;57332;51.320;-0.580;2023-02-16T03:42:36;4.68;;;2.50;;
69991;SDS011;57332;51.320;-0.580;2023-02-16T03:45:03;10.00;;;2.90;;
69991;SDS011;57332;51.320;-0.580;2023-02-16T03:47:30;5.45;;;3.20;;
69991;SDS011;57332;51.320;-0.580;2023-02-16T03:49:57;6.72;;;2.58;;
69991;SDS011;57332;51.320;-0.580;2023-02-16T03:52:24;6.78;;;2.92;;
69991;SDS011;57332;51.320;-0.580;2023-02-16T03:54:51;4.78;;;2.35;;
69991;SDS011;57332;51.320;-0.580;2023-02-16T03:57:17;5.80;;;2.33;;
69991;SDS011;57332;51.320;-0.580;2023-02-16T03:59:44;7.07;;;2.92;;
69991;SDS011;57332;51.320;-0.580;2023-02-16T04:02:11;6.82;;;2.50;;
69991;SDS011;57332;51.320;-0.580;2023-02-16T04:04:38;5.85;;;2.67;;
69991;SDS011;57332;51.320;-0.580;2023-02-16T04:07:05;6.95;;;2.90;;
69991;SDS011;57332;51.320;-0.580;2023-02-16T04:09:32;8.80;;;2.60;;
69991;SDS011;57332;51.320;-0.580;2023-02-16T04:11:59;6.70;;;2.70;;
69991;SDS011;57332;51.320;-0.580;2023-02-16T04:14:44;6.85;;;2.97;;
69991;SDS011;57332;51.320;-0.580;2023-02-16T04:17:13;8.23;;;2.83;;
69991;SDS011;57332;51.320;-0.580;2023-02-16T04:19:42;7.97;;;2.70;;
69991;SDS011;57332;51.320;-0.580;2023-02-16T04:22:09;8.65;;;2.80;;
69991;SDS011;57332;51.320;-0.580;2023-02-16T04:24:36;7.85;;;3.25;;
69991;SDS011;57332;51.320;-0.580;2023-02-16T04:27:03;7.63;;;3.10;;
69991;SDS011;57332;51.320;-0.580;2023-02-16T04:29:30;7.30;;;3.13;;
69991;SDS011;57332;51.320;-0.580;2023-02-16T04:31:57;7.57;;;3.33;;
69991;SDS011;57332;51.320;-0.580;2023-02-16T04:34:24;7.70;;;3.10;;
69991;SDS011;57332;51.320;-0.580;2023-02-16T04:36:51;6.53;;;2.53;;
69991;SDS011;57332;51.320;-0.580;2023-02-16T04:39:18;8.40;;;3.10;;
69991;SDS011;57332;51.320;-0.580;2023-02-16T04:41:46;6.47;;;2.65;;
69991;SDS011;57332;51.320;-0.580;2023-02-16T04:44:12;10.27;;;3.40;;
69991;SDS011;57332;51.320;-0.580;2023-02-16T04:46:39;8.25;;;3.00;;
69991;SDS011;57332;51.320;-0.580;2023-02-16T04:49:06;6.35;;;2.80;;
69991;SDS011;57332;51.320;-0.580;2023-02-16T04:51:33;8.75;;;3.13;;
69991;SDS011;57332;51.320;-0.580;2023-02-16T04:54:00;9.20;;;3.47;;
69991;SDS011;57332;51.320;-0.580;2023-02-16T04:56:26;6.95;;;3.33;;
69991;SDS011;57332;51.320;-0.580;2023-02-16T04:58:54;7.78;;;3.80;;
69991;SDS011;57332;51.320;-0.580;2023-02-16T05:01:22;7.18;;;3.10;;
69991;SDS011;57332;51.320;-0.580;2023-02-16T05:03:49;7.82;;;3.10;;
69991;SDS011;57332;51.320;-0.580;2023-02-16T05:06:16;8.10;;;3.17;;
69991;SDS011;57332;51.320;-0.580;2023-02-16T05:08:43;9.30;;;3.33;;
69991;SDS011;57332;51.320;-0.580;2023-02-16T05:11:11;8.73;;;3.35;;
69991;SDS011;57332;51.320;-0.580;2023-02-16T05:13:56;8.05;;;3.70;;
69991;SDS011;57332;51.320;-0.580;2023-02-16T05:16:42;8.63;;;3.15;;
69991;SDS011;57332;51.320;-0.580;2023-02-16T05:19:09;8.23;;;3.20;;
69991;SDS011;57332;51.320;-0.580;2023-02-16T05:21:36;6.93;;;3.25;;
69991;SDS011;57332;51.320;-0.580;2023-02-16T05:24:04;8.57;;;3.70;;
69991;SDS011;57332;51.320;-0.580;2023-02-16T05:26:31;9.23;;;3.70;;
69991;SDS011;57332;51.320;-0.580;2023-02-16T05:28:58;8.75;;;3.38;;
69991;SDS011;57332;51.320;-0.580;2023-02-16T05:31:25;7.60;;;3.35;;
69991;SDS011;57332;51.320;-0.580;2023-02-16T05:33:53;9.57;;;3.65;;
69991;SDS011;57332;51.320;-0.580;2023-02-16T05:36:20;6.93;;;3.08;;
69991;SDS011;57332;51.320;-0.580;2023-02-16T05:38:47;8.45;;;3.70;;
69991;SDS011;57332;51.320;-0.580;2023-02-16T05:41:14;8.05;;;3.70;;
69991;SDS011;57332;51.320;-0.580;2023-02-16T05:43:49;9.98;;;3.83;;
69991;SDS011;57332;51.320;-0.580;2023-02-16T05:46:16;10.15;;;3.72;;
69991;SDS011;57332;51.320;-0.580;2023-02-16T05:48:43;8.32;;;3.17;;
69991;SDS011;57332;51.320;-0.580;2023-02-16T05:51:10;6.53;;;3.63;;
69991;SDS011;57332;51.320;-0.580;2023-02-16T05:53:37;10.77;;;3.95;;
69991;SDS011;57332;51.320;-0.580;2023-02-16T05:56:04;10.88;;;4.05;;
69991;SDS011;57332;51.320;-0.580;2023-02-16T05:58:33;8.57;;;4.30;;
69991;SDS011;57332;51.320;-0.580;2023-02-16T06:01:00;11.10;;;4.45;;
69991;SDS011;57332;51.320;-0.580;2023-02-16T06:03:30;10.52;;;4.28;;
69991;SDS011;57332;51.320;-0.580;2023-02-16T06:05:58;9.18;;;4.13;;
69991;SDS011;57332;51.320;-0.580;2023-02-16T06:08:26;11.52;;;4.03;;
69991;SDS011;57332;51.320;-0.580;2023-02-16T06:10:53;12.35;;;4.50;;
69991;SDS011;57332;51.320;-0.580;2023-02-16T06:13:20;10.65;;;4.13;;
69991;SDS011;57332;51.320;-0.580;2023-02-16T06:15:49;12.35;;;4.93;;
69991;SDS011;57332;51.320;-0.580;2023-02-16T06:18:16;13.07;;;4.70;;
69991;SDS011;57332;51.320;-0.580;2023-02-16T06:20:44;13.20;;;4.70;;
69991;SDS011;57332;51.320;-0.580;2023-02-16T06:23:11;13.02;;;5.00;;
69991;SDS011;57332;51.320;-0.580;2023-02-16T06:25:42;10.18;;;4.30;;
69991;SDS011;57332;51.320;-0.580;2023-02-16T06:28:09;8.07;;;3.85;;
69991;SDS011;57332;51.320;-0.580;2023-02-16T06:30:36;10.73;;;4.07;;
69991;SDS011;57332;51.320;-0.580;2023-02-16T06:33:03;7.82;;;2.90;;
69991;SDS011;57332;51.320;-0.580;2023-02-16T06:35:30;7.25;;;3.17;;
69991;SDS011;57332;51.320;-0.580;2023-02-16T06:37:57;6.60;;;2.38;;
69991;SDS011;57332;51.320;-0.580;2023-02-16T06:40:24;6.22;;;2.45;;
69991;SDS011;57332;51.320;-0.580;2023-02-16T06:42:51;5.78;;;2.00;;
69991;SDS011;57332;51.320;-0.580;2023-02-16T06:45:18;5.30;;;2.20;;
69991;SDS011;57332;51.320;-0.580;2023-02-16T06:47:45;4.60;;;2.00;;
69991;SDS011;57332;51.320;-0.580;2023-02-16T06:50:12;5.15;;;2.03;;
69991;SDS011;57332;51.320;-0.580;2023-02-16T06:52:40;4.50;;;1.60;;
69991;SDS011;57332;51.320;-0.580;2023-02-16T06:55:07;4.65;;;2.05;;
69991;SDS011;57332;51.320;-0.580;2023-02-16T06:57:34;4.28;;;1.65;;
69991;SDS011;57332;51.320;-0.580;2023-02-16T07:00:01;6.53;;;1.90;;
69991;SDS011;57332;51.320;-0.580;2023-02-16T07:02:28;5.05;;;2.03;;
69991;SDS011;57332;51.320;-0.580;2023-02-16T07:04:55;7.05;;;1.60;;
69991;SDS011;57332;51.320;-0.580;2023-02-16T07:07:21;3.17;;;1.42;;
69991;SDS011;57332;51.320;-0.580;2023-02-16T07:09:49;2.53;;;1.10;;
69991;SDS011;57332;51.320;-0.580;2023-02-16T07:12:16;2.05;;;1.00;;
69991;SDS011;57332;51.320;-0.580;2023-02-16T07:14:43;4.03;;;1.20;;
69991;SDS011;57332;51.320;-0.580;2023-02-16T07:17:10;2.88;;;0.90;;
69991;SDS011;57332;51.320;-0.580;2023-02-16T07:19:36;3.10;;;1.00;;
69991;SDS011;57332;51.320;-0.580;2023-02-16T07:22:03;2.03;;;0.73;;
69991;SDS011;57332;51.320;-0.580;2023-02-16T07:24:31;4.03;;;1.10;;
69991;SDS011;57332;51.320;-0.580;2023-02-16T07:26:57;1.10;;;0.70;;
69991;SDS011;57332;51.320;-0.580;2023-02-16T07:29:24;3.25;;;0.80;;
69991;SDS011;57332;51.320;-0.580;2023-02-16T07:31:51;2.60;;;0.80;;
69991;SDS011;57332;51.320;-0.580;2023-02-16T07:34:19;2.95;;;0.90;;
69991;SDS011;57332;51.320;-0.580;2023-02-16T07:36:47;2.45;;;0.70;;
69991;SDS011;57332;51.320;-0.580;2023-02-16T07:39:14;3.17;;;0.73;;
69991;SDS011;57332;51.320;-0.580;2023-02-16T07:41:41;2.28;;;0.80;;
69991;SDS011;57332;51.320;-0.580;2023-02-16T07:44:08;3.58;;;1.02;;
69991;SDS011;57332;51.320;-0.580;2023-02-16T07:46:35;0.50;;;0.30;;
69991;SDS011;57332;51.320;-0.580;2023-02-16T07:49:02;1.98;;;0.70;;
69991;SDS011;57332;51.320;-0.580;2023-02-16T07:51:29;1.70;;;0.50;;
69991;SDS011;57332;51.320;-0.580;2023-02-16T07:53:56;1.73;;;0.70;;
69991;SDS011;57332;51.320;-0.580;2023-02-16T07:56:27;2.38;;;0.70;;
69991;SDS011;57332;51.320;-0.580;2023-02-16T07:58:55;2.58;;;0.70;;
69991;SDS011;57332;51.320;-0.580;2023-02-16T08:01:22;2.10;;;0.70;;
69991;SDS011;57332;51.320;-0.580;2023-02-16T08:03:50;1.90;;;0.50;;
69991;SDS011;57332;51.320;-0.580;2023-02-16T08:06:17;1.10;;;0.63;;
69991;SDS011;57332;51.320;-0.580;2023-02-16T08:08:44;3.05;;;0.70;;
69991;SDS011;57332;51.320;-0.580;2023-02-16T08:11:12;1.50;;;0.50;;
69991;SDS011;57332;51.320;-0.580;2023-02-16T08:13:39;1.30;;;0.65;;
69991;SDS011;57332;51.320;-0.580;2023-02-16T08:16:10;1.40;;;0.82;;
69991;SDS011;57332;51.320;-0.580;2023-02-16T08:18:38;1.77;;;0.90;;
69991;SDS011;57332;51.320;-0.580;2023-02-16T08:21:13;2.13;;;0.70;;
69991;SDS011;57332;51.320;-0.580;2023-02-16T08:23:40;3.50;;;0.80;;
69991;SDS011;57332;51.320;-0.580;2023-02-16T08:26:09;2.05;;;1.00;;
69991;SDS011;57332;51.320;-0.580;2023-02-16T08:28:36;3.65;;;1.00;;
69991;SDS011;57332;51.320;-0.580;2023-02-16T08:31:04;1.30;;;0.70;;
69991;SDS011;57332;51.320;-0.580;2023-02-16T08:33:32;2.30;;;0.90;;
69991;SDS011;57332;51.320;-0.580;2023-02-16T08:35:59;5.80;;;0.90;;
69991;SDS011;57332;51.320;-0.580;2023-02-16T08:38:26;2.20;;;0.70;;
69991;SDS011;57332;51.320;-0.580;2023-02-16T08:40:53;1.20;;;0.75;;
69991;SDS011;57332;51.320;-0.580;2023-02-16T08:43:21;2.25;;;0.82;;
69991;SDS011;57332;51.320;-0.580;2023-02-16T08:45:47;2.47;;;0.80;;
69991;SDS011;57332;51.320;-0.580;2023-02-16T08:48:14;2.08;;;0.93;;
69991;SDS011;57332;51.320;-0.580;2023-02-16T08:50:43;5.18;;;1.10;;
69991;SDS011;57332;51.320;-0.580;2023-02-16T08:53:12;2.28;;;1.10;;
69991;SDS011;57332;51.320;-0.580;2023-02-16T08:55:39;3.47;;;1.20;;
69991;SDS011;57332;51.320;-0.580;2023-02-16T08:58:06;2.28;;;1.17;;
69991;SDS011;57332;51.320;-0.580;2023-02-16T09:00:33;2.90;;;1.00;;
69991;SDS011;57332;51.320;-0.580;2023-02-16T09:03:00;1.80;;;1.08;;
69991;SDS011;57332;51.320;-0.580;2023-02-16T09:05:27;1.92;;;1.02;;
69991;SDS011;57332;51.320;-0.580;2023-02-16T09:07:54;1.83;;;1.00;;
69991;SDS011;57332;51.320;-0.580;2023-02-16T09:10:21;2.20;;;1.10;;
69991;SDS011;57332;51.320;-0.580;2023-02-16T09:12:50;3.10;;;1.10;;
69991;SDS011;57332;51.320;-0.580;2023-02-16T09:15:17;2.00;;;1.20;;
69991;SDS011;57332;51.320;-0.580;2023-02-16T09:17:44;2.25;;;1.10;;
69991;SDS011;57332;51.320;-0.580;2023-02-16T09:20:12;2.40;;;0.98;;
69991;SDS011;57332;51.320;-0.580;2023-02-16T09:22:38;2.67;;;1.27;;
69991;SDS011;57332;51.320;-0.580;2023-02-16T09:25:05;3.53;;;1.52;;
69991;SDS011;57332;51.320;-0.580;2023-02-16T09:27:33;4.03;;;1.55;;
69991;SDS011;57332;51.320;-0.580;2023-02-16T09:30:00;3.53;;;1.50;;
69991;SDS011;57332;51.320;-0.580;2023-02-16T09:32:30;5.22;;;2.42;;
69991;SDS011;57332;51.320;-0.580;2023-02-16T09:34:57;4.80;;;1.77;;
69991;SDS011;57332;51.320;-0.580;2023-02-16T09:37:24;26.65;;;4.40;;
69991;SDS011;57332;51.320;-0.580;2023-02-16T09:39:51;6.15;;;2.22;;
69991;SDS011;57332;51.320;-0.580;2023-02-16T09:47:25;3.40;;;1.83;;
69991;SDS011;57332;51.320;-0.580;2023-02-16T09:49:53;3.13;;;1.45;;
69991;SDS011;57332;51.320;-0.580;2023-02-16T09:54:51;2.78;;;1.30;;
69991;SDS011;57332;51.320;-0.580;2023-02-16T09:57:20;2.72;;;1.27;;
69991;SDS011;57332;51.320;-0.580;2023-02-16T09:59:54;2.40;;;1.40;;
69991;SDS011;57332;51.320;-0.580;2023-02-16T10:05:02;1.67;;;0.85;;
69991;SDS011;57332;51.320;-0.580;2023-02-16T10:10:12;2.00;;;1.10;;
69991;SDS011;57332;51.320;-0.580;2023-02-16T10:12:44;1.92;;;1.10;;
69991;SDS011;57332;51.320;-0.580;2023-02-16T10:15:17;1.88;;;0.80;;
69991;SDS011;57332;51.320;-0.580;2023-02-16T10:17:47;1.95;;;1.02;;
69991;SDS011;57332;51.320;-0.580;2023-02-16T10:22:54;3.63;;;1.10;;
69991;SDS011;57332;51.320;-0.580;2023-02-16T10:25:43;1.98;;;1.10;;
69991;SDS011;57332;51.320;-0.580;2023-02-16T10:29:02;4.88;;;1.45;;
69991;SDS011;57332;51.320;-0.580;2023-02-16T10:31:02;2.83;;;1.38;;
69991;SDS011;57332;51.320;-0.580;2023-02-16T10:35:59;2.53;;;1.20;;
69991;SDS011;57332;51.320;-0.580;2023-02-16T10:38:37;2.45;;;1.30;;
69991;SDS011;57332;51.320;-0.580;2023-02-16T10:44:01;2.60;;;1.02;;
69991;SDS011;57332;51.320;-0.580;2023-02-16T10:46:30;3.17;;;1.35;;
69991;SDS011;57332;51.320;-0.580;2023-02-16T10:48:58;3.90;;;1.27;;
69991;SDS011;57332;51.320;-0.580;2023-02-16T10:51:25;2.20;;;1.17;;
69991;SDS011;57332;51.320;-0.580;2023-02-16T10:54:04;2.85;;;1.48;;
69991;SDS011;57332;51.320;-0.580;2023-02-16T10:59:20;3.05;;;1.70;;
69991;SDS011;57332;51.320;-0.580;2023-02-16T11:01:49;2.55;;;1.33;;
69991;SDS011;57332;51.320;-0.580;2023-02-16T11:07:18;4.60;;;1.30;;
69991;SDS011;57332;51.320;-0.580;2023-02-16T11:09:44;2.38;;;1.30;;
69991;SDS011;57332;51.320;-0.580;2023-02-16T11:12:54;2.67;;;1.20;;
69991;SDS011;57332;51.320;-0.580;2023-02-16T11:17:29;3.03;;;1.05;;
69991;SDS011;57332;51.320;-0.580;2023-02-16T11:20:04;2.25;;;1.13;;
69991;SDS011;57332;51.320;-0.580;2023-02-16T11:22:34;2.78;;;1.30;;
69991;SDS011;57332;51.320;-0.580;2023-02-16T11:25:22;2.22;;;1.30;;
69991;SDS011;57332;51.320;-0.580;2023-02-16T11:27:54;2.50;;;1.50;;
69991;SDS011;57332;51.320;-0.580;2023-02-16T11:30:36;3.88;;;1.50;;
69991;SDS011;57332;51.320;-0.580;2023-02-16T11:33:17;2.55;;;1.35;;
69991;SDS011;57332;51.320;-0.580;2023-02-16T11:35:45;3.92;;;1.80;;
69991;SDS011;57332;51.320;-0.580;2023-02-16T11:38:29;3.45;;;1.58;;
69991;SDS011;57332;51.320;-0.580;2023-02-16T11:43:28;4.35;;;2.20;;
69991;SDS011;57332;51.320;-0.580;2023-02-16T11:46:02;4.30;;;2.03;;
69991;SDS011;57332;51.320;-0.580;2023-02-16T11:48:30;3.65;;;2.05;;
69991;SDS011;57332;51.320;-0.580;2023-02-16T11:50:59;4.43;;;2.47;;
69991;SDS011;57332;51.320;-0.580;2023-02-16T11:53:28;3.55;;;2.40;;
69991;SDS011;57332;51.320;-0.580;2023-02-16T11:58:36;4.97;;;2.45;;
69991;SDS011;57332;51.320;-0.580;2023-02-16T12:08:56;5.22;;;2.40;;
69991;SDS011;57332;51.320;-0.580;2023-02-16T12:17:04;8.00;;;2.70;;
69991;SDS011;57332;51.320;-0.580;2023-02-16T12:19:41;3.83;;;2.92;;
69991;SDS011;57332;51.320;-0.580;2023-02-16T12:22:22;4.40;;;2.70;;
69991;SDS011;57332;51.320;-0.580;2023-02-16T12:27:36;4.55;;;2.70;;
69991;SDS011;57332;51.320;-0.580;2023-02-16T12:38:16;5.43;;;2.58;;
69991;SDS011;57332;51.320;-0.580;2023-02-16T12:41:11;4.90;;;2.70;;
69991;SDS011;57332;51.320;-0.580;2023-02-16T12:51:09;3.85;;;2.58;;
69991;SDS011;57332;51.320;-0.580;2023-02-16T12:56:16;5.18;;;3.08;;
69991;SDS011;57332;51.320;-0.580;2023-02-16T12:58:45;5.50;;;2.80;;
69991;SDS011;57332;51.320;-0.580;2023-02-16T13:01:22;4.53;;;2.90;;
69991;SDS011;57332;51.320;-0.580;2023-02-16T13:03:51;4.88;;;2.33;;
69991;SDS011;57332;51.320;-0.580;2023-02-16T13:09:11;7.00;;;2.50;;
69991;SDS011;57332;51.320;-0.580;2023-02-16T13:14:19;5.15;;;2.80;;
69991;SDS011;57332;51.320;-0.580;2023-02-16T13:16:52;4.70;;;2.50;;
69991;SDS011;57332;51.320;-0.580;2023-02-16T13:19:20;5.57;;;3.17;;
69991;SDS011;57332;51.320;-0.580;2023-02-16T13:29:36;7.88;;;3.75;;
69991;SDS011;57332;51.320;-0.580;2023-02-16T13:42:36;5.05;;;2.33;;
69991;SDS011;57332;51.320;-0.580;2023-02-16T13:45:11;4.75;;;2.65;;
69991;SDS011;57332;51.320;-0.580;2023-02-16T13:47:39;5.70;;;1.73;;
69991;SDS011;57332;51.320;-0.580;2023-02-16T13:50:53;3.30;;;1.50;;
69991;SDS011;57332;51.320;-0.580;2023-02-16T13:52:55;4.13;;;1.77;;
69991;SDS011;57332;51.320;-0.580;2023-02-16T13:55:30;2.13;;;1.23;;
69991;SDS011;57332;51.320;-0.580;2023-02-16T14:00:41;3.08;;;1.30;;
69991;SDS011;57332;51.320;-0.580;2023-02-16T14:03:12;2.47;;;1.30;;
69991;SDS011;57332;51.320;-0.580;2023-02-16T14:08:45;3.90;;;1.70;;
69991;SDS011;57332;51.320;-0.580;2023-02-16T14:11:34;2.92;;;1.40;;
69991;SDS011;57332;51.320;-0.580;2023-02-16T14:16:54;3.38;;;1.73;;
69991;SDS011;57332;51.320;-0.580;2023-02-16T14:19:23;3.15;;;1.63;;
69991;SDS011;57332;51.320;-0.580;2023-02-16T14:21:50;4.60;;;1.42;;
69991;SDS011;57332;51.320;-0.580;2023-02-16T14:24:26;2.17;;;1.58;;
69991;SDS011;57332;51.320;-0.580;2023-02-16T14:26:55;2.60;;;1.50;;
69991;SDS011;57332;51.320;-0.580;2023-02-16T14:29:37;2.53;;;1.23;;
69991;SDS011;57332;51.320;-0.580;2023-02-16T14:32:24;2.72;;;1.65;;
69991;SDS011;57332;51.320;-0.580;2023-02-16T14:35:04;2.15;;;1.30;;
69991;SDS011;57332;51.320;-0.580;2023-02-16T14:37:40;2.90;;;1.33;;
69991;SDS011;57332;51.320;-0.580;2023-02-16T14:42:38;2.03;;;1.30;;
69991;SDS011;57332;51.320;-0.580;2023-02-16T14:47:57;2.45;;;1.33;;
69991;SDS011;57332;51.320;-0.580;2023-02-16T14:53:22;1.83;;;1.05;;
69991;SDS011;57332;51.320;-0.580;2023-02-16T14:58:49;2.15;;;1.23;;
69991;SDS011;57332;51.320;-0.580;2023-02-16T15:01:17;3.38;;;1.40;;
69991;SDS011;57332;51.320;-0.580;2023-02-16T15:03:45;2.25;;;1.50;;
69991;SDS011;57332;51.320;-0.580;2023-02-16T15:06:16;3.08;;;1.55;;
69991;SDS011;57332;51.320;-0.580;2023-02-16T15:08:44;1.80;;;1.42;;
69991;SDS011;57332;51.320;-0.580;2023-02-16T15:11:15;3.17;;;1.50;;
69991;SDS011;57332;51.320;-0.580;2023-02-16T15:13:45;2.92;;;1.50;;
69991;SDS011;57332;51.320;-0.580;2023-02-16T15:16:12;3.03;;;1.50;;
69991;SDS011;57332;51.320;-0.580;2023-02-16T15:18:52;3.20;;;1.70;;
69991;SDS011;57332;51.320;-0.580;2023-02-16T15:21:21;3.63;;;1.48;;
69991;SDS011;57332;51.320;-0.580;2023-02-16T15:23:59;3.17;;;1.88;;
69991;SDS011;57332;51.320;-0.580;2023-02-16T15:26:30;4.93;;;2.08;;
69991;SDS011;57332;51.320;-0.580;2023-02-16T15:29:00;4.40;;;1.70;;
69991;SDS011;57332;51.320;-0.580;2023-02-16T15:31:29;3.78;;;1.60;;
69991;SDS011;57332;51.320;-0.580;2023-02-16T15:33:59;2.83;;;1.77;;
69991;SDS011;57332;51.320;-0.580;2023-02-16T15:36:31;3.45;;;1.70;;
69991;SDS011;57332;51.320;-0.580;2023-02-16T15:38:59;3.13;;;1.80;;
69991;SDS011;57332;51.320;-0.580;2023-02-16T15:41:33;3.10;;;1.90;;
69991;SDS011;57332;51.320;-0.580;2023-02-16T15:44:01;3.97;;;1.50;;
69991;SDS011;57332;51.320;-0.580;2023-02-16T15:46:30;2.58;;;1.48;;
69991;SDS011;57332;51.320;-0.580;2023-02-16T15:48:58;3.90;;;1.92;;
69991;SDS011;57332;51.320;-0.580;2023-02-16T15:53:53;2.63;;;1.50;;
69991;SDS011;57332;51.320;-0.580;2023-02-16T15:59:01;4.93;;;1.83;;
69991;SDS011;57332;51.320;-0.580;2023-02-16T16:01:32;3.10;;;2.00;;
69991;SDS011;57332;51.320;-0.580;2023-02-16T16:04:12;4.43;;;2.30;;
69991;SDS011;57332;51.320;-0.580;2023-02-16T16:06:42;3.58;;;1.83;;
69991;SDS011;57332;51.320;-0.580;2023-02-16T16:09:14;4.00;;;2.25;;
69991;SDS011;57332;51.320;-0.580;2023-02-16T16:11:43;5.10;;;2.40;;
69991;SDS011;57332;51.320;-0.580;2023-02-16T16:14:10;4.35;;;2.58;;
69991;SDS011;57332;51.320;-0.580;2023-02-16T16:16:36;3.72;;;2.30;;
69991;SDS011;57332;51.320;-0.580;2023-02-16T16:24:28;3.00;;;2.20;;
69991;SDS011;57332;51.320;-0.580;2023-02-16T16:26:59;2.70;;;1.80;;
69991;SDS011;57332;51.320;-0.580;2023-02-16T16:29:34;4.65;;;2.40;;
69991;SDS011;57332;51.320;-0.580;2023-02-16T16:32:02;5.68;;;2.50;;
69991;SDS011;57332;51.320;-0.580;2023-02-16T16:34:31;3.50;;;2.28;;
69991;SDS011;57332;51.320;-0.580;2023-02-16T16:36:58;3.22;;;2.35;;
69991;SDS011;57332;51.320;-0.580;2023-02-16T16:39:29;5.57;;;2.10;;
69991;SDS011;57332;51.320;-0.580;2023-02-16T16:49:51;4.68;;;2.40;;
69991;SDS011;57332;51.320;-0.580;2023-02-16T16:55:22;5.30;;;2.38;;
69991;SDS011;57332;51.320;-0.580;2023-02-16T16:57:52;4.32;;;2.40;;
69991;SDS011;57332;51.320;-0.580;2023-02-16T17:00:20;4.50;;;2.65;;
69991;SDS011;57332;51.320;-0.580;2023-02-16T17:02:47;4.40;;;2.30;;
69991;SDS011;57332;51.320;-0.580;2023-02-16T17:05:14;4.93;;;2.88;;
69991;SDS011;57332;51.320;-0.580;2023-02-16T17:07:41;4.78;;;2.60;;
69991;SDS011;57332;51.320;-0.580;2023-02-16T17:10:08;6.90;;;2.85;;
69991;SDS011;57332;51.320;-0.580;2023-02-16T17:12:35;5.03;;;2.53;;
69991;SDS011;57332;51.320;-0.580;2023-02-16T17:15:02;5.38;;;2.90;;
69991;SDS011;57332;51.320;-0.580;2023-02-16T17:17:30;4.45;;;2.58;;
69991;SDS011;57332;51.320;-0.580;2023-02-16T17:19:57;5.70;;;2.78;;
69991;SDS011;57332;51.320;-0.580;2023-02-16T17:22:24;5.38;;;2.95;;
69991;SDS011;57332;51.320;-0.580;2023-02-16T17:24:51;6.22;;;3.10;;
69991;SDS011;57332;51.320;-0.580;2023-02-16T17:27:18;6.30;;;3.03;;
69991;SDS011;57332;51.320;-0.580;2023-02-16T17:29:45;6.75;;;3.08;;
69991;SDS011;57332;51.320;-0.580;2023-02-16T17:32:12;5.68;;;3.53;;